Last 30 Days

Pozo Rd (SLO-9)

Daily Data | America/Los_Angeles
as of 3/6/21 4:56 PM PST
Date Daily Max Temp (°F) Time of Max Temp Daily Min Temp (°F) Time of Min Temp Daily Rain (In) Monthly Rain (In) Seasonal Rainfall (In) Wind Spd (mph) Daily Max Wind (mph) Time of Max Wind Daily ETo (in) 7 Day ETo (in) Daily Solar Rad (Cal/cm2) Dew Pt (°F) Max RH (%) Min RH (%) Hrs 70-85F (hrs) Hrs > 95F (hrs) Powdery Mildew Stress (pts) GDDs (DL) GDDs (Mx/Mn) Max Inversion (°F) Max Inversion Time Min Inversion (°F) Min Inversion Time Max 1 Min Rain (In) Max 1 Min Rain Time Max 15 Min Rain (In) Max 15 Min Precip Time Max 60 Min Rain (In) Max 60 Min Rain Time Hrs <= 32F (hrs) Hrs <= 28F (hrs) Chilling <=45F (hrs) Chilling <=45F Seas (hrs) Chill Portions Bat Volt Min Day (V)
3/5/21 71.7 1346 21.9 0626 0.00 0.00 9.18 2.2 16.8 1405 0.127 0.82 479 34.0 98 22 0.62 0.00 0 4.0 0.0 8.2 1951 -4.6 1404 - - - - - - 7.5 6.5 13.9 1,697 66 12.4
3/4/21 66.6 1311 25.1 0616 0.00 0.00 9.18 2.3 15.8 1327 0.119 0.82 476 34.8 99 36 0.00 0.00 0 3.4 0.0 7.0 0732 -4.4 1340 - - - - - - 9.5 5.8 13.8 1,683 65 12.4
3/3/21 55.5 1207 26.5 2352 0.00 0.00 9.18 2.3 13.5 1504 0.059 0.84 191 31.4 97 32 0.00 0.00 0 0.7 0.0 6.8 0319 -2.2 1207 - - - - - - 7.7 0.6 14.8 1,669 65 12.4
3/2/21 69.6 1300 22.7 0234 0.00 0.00 9.18 2.0 14.8 1405 0.124 0.91 440 25.7 86 14 0.00 0.00 0 3.9 0.0 7.2 1950 -4.2 1056 - - - - - - 7.6 7.2 14.2 1,655 64 12.4
3/1/21 68.1 1218 20.4 0640 0.00 0.00 9.18 2.5 19.5 1209 0.142 0.90 474 22.0 89 14 0.00 0.00 0 4.8 0.0 7.7 1805 -4.0 1146 - - - - - - 11.1 8.5 14.3 1,640 64 12.3
2/28/21 67.1 1352 18.0 0505 0.00 0.10 9.18 2.4 15.5 1434 0.126 0.89 456 22.9 94 18 0.00 0.00 0 4.0 0.0 10.2 1813 -4.0 1239 - - - - - - 10.6 7.5 14.3 1,626 63 12.3
2/27/21 63.0 1455 23.9 2345 0.00 0.10 9.18 3.7 19.2 1430 0.120 0.88 452 29.8 98 25 0.00 0.00 0 3.1 0.0 8.5 2003 -3.9 1257 - - - - - - 8.1 4.8 13.7 1,612 62 12.4
2/26/21 69.8 1423 17.4 0520 0.00 0.10 9.18 2.8 18.5 1517 0.134 0.86 458 24.8 94 17 0.00 0.00 0 5.0 0.0 9.7 1808 -3.8 0840 - - - - - - 10.1 7.6 14.4 1,598 62 12.3
2/25/21 64.8 1459 21.0 0609 0.00 0.10 9.18 2.8 14.5 1054 0.130 0.84 456 21.3 87 17 0.00 0.00 0 4.3 0.0 11.4 0426 -4.0 0830 - - - - - - 10.0 8.0 12.8 1,584 61 12.3
2/24/21 71.3 1507 20.1 0701 0.00 0.10 9.18 2.9 15.8 1141 0.136 0.82 456 26.2 96 18 0.11 0.00 0 5.9 0.0 13.8 2136 -4.0 1246 - - - - - - 7.9 5.8 12.3 1,571 61 12.3
2/23/21 70.9 1251 24.6 0638 0.00 0.10 9.18 2.5 16.5 1331 0.116 0.79 390 32.1 96 28 0.14 0.00 0 5.9 0.0 12.3 2019 -3.0 1000 - - - - - - 7.7 4.8 13.2 1,558 60 12.4
2/22/21 74.2 1345 22.7 0543 0.00 0.10 9.18 2.4 14.8 1531 0.127 0.78 437 31.5 96 25 3.30 0.00 0 5.7 0.0 8.0 1940 -4.9 0846 - - - - - - 7.8 5.3 13.6 1,545 60 12.4
2/21/21 61.6 1541 22.5 0548 0.00 0.10 9.18 3.3 16.8 1256 0.116 0.72 434 29.7 97 30 0.00 0.00 0 3.3 0.0 9.7 2205 -3.1 0809 - - - - - - 5.6 4.0 11.3 1,532 59 12.4
2/20/21 56.6 1405 30.3 0542 0.00 0.10 9.18 5.7 25.2 1032 0.103 0.70 432 35.2 99 43 0.00 0.00 0 1.3 0.0 9.7 2220 -4.1 1358 - - - - - - 1.5 0.0 11.9 1,520 59 12.4
2/19/21 68.2 1541 23.7 0400 0.00 0.10 9.18 2.5 12.8 1438 0.110 0.68 407 34.4 98 29 0.00 0.00 0 4.1 0.0 8.2 2055 -4.2 1144 - - - - - - 7.5 6.8 13.1 1,508 58 12.3
2/18/21 65.8 1409 19.4 0616 0.00 0.10 9.18 2.0 15.2 1425 0.111 0.64 424 26.0 95 19 0.00 0.00 0 3.1 0.0 6.8 1839 -3.6 1231 - - - - - - 9.9 7.2 14.4 1,495 57 12.3
2/17/21 61.4 1609 27.3 2343 0.00 0.10 9.18 3.5 16.5 1001 0.107 0.60 416 31.5 99 28 0.00 0.00 0 2.4 0.0 9.9 1939 -4.1 1153 - - - - - - 3.0 0.1 14.2 1,481 56 12.5
2/16/21 61.4 1529 31.3 0242 0.00 0.10 9.18 4.3 18.8 1059 0.101 0.57 396 35.1 99 23 0.00 0.00 0 2.2 0.0 8.2 0240 -3.6 1311 - - - - - - 0.3 0.0 13.0 1,467 56 12.5
2/15/21 63.6 1301 33.9 0613 0.00 0.10 9.18 2.6 12.8 1357 0.075 0.53 319 42.7 97 59 0.00 0.00 0 2.8 0.0 4.1 2321 -3.7 1250 - - - - - - 0.0 0.0 10.4 1,454 55 12.5
2/14/21 60.4 1416 26.6 0546 0.00 0.10 9.18 3.3 18.5 1500 0.093 0.55 338 33.5 99 25 0.00 0.00 0 1.9 0.0 7.2 0216 -3.7 1240 - - - - - - 7.2 1.1 10.3 1,443 55 12.4
2/13/21 60.3 1428 31.0 2354 0.00 0.10 9.18 3.9 21.2 1522 0.079 0.57 295 39.6 99 38 0.00 0.00 0 2.1 0.0 7.3 2240 -3.9 1427 - - - - - - 0.6 0.0 12.4 1,433 54 12.5
2/12/21 60.3 1549 35.5 2220 0.10 0.10 9.18 3.8 18.5 1306 0.075 0.59 332 41.4 98 47 0.00 0.00 0 1.7 0.0 6.9 2244 -3.1 1207 0.01 0243 0.03 0237 0.06 0158 0.0 0.0 7.6 1,421 53 12.5
2/11/21 62.5 1326 28.4 0514 0.00 0.00 9.08 2.4 12.1 2033 0.067 0.61 247 39.7 99 49 0.00 0.00 0 3.1 0.0 5.4 0057 -3.4 1029 - - - - - - 6.5 0.0 9.0 1,413 52 12.4
2/10/21 64.7 1439 30.9 0645 0.00 0.00 9.08 2.6 15.2 1510 0.085 0.63 353 39.0 99 45 0.00 0.00 0 3.2 0.0 8.7 1923 -4.0 1149 - - - - - - 1.5 0.0 15.3 1,404 52 12.4
2/9/21 58.5 1332 34.4 2232 0.00 0.00 9.08 1.9 10.5 1351 0.058 0.61 244 40.9 98 54 0.00 0.00 0 1.5 0.0 5.2 2053 -3.2 1334 - - - - - - 0.0 0.0 13.2 1,389 51 12.5
2/8/21 68.3 1254 22.0 0606 0.00 0.00 9.08 1.8 13.8 1420 0.097 0.63 372 34.0 98 27 0.00 0.00 0 3.8 0.0 6.4 1746 -3.9 1000 - - - - - - 7.9 7.5 13.8 1,376 51 12.4
2/7/21 74.4 1348 21.5 0645 0.00 0.00 9.08 1.7 12.8 1523 0.106 0.63 369 31.2 98 19 2.84 0.00 0 5.5 0.0 9.1 1804 -4.0 0815 - - - - - - 10.0 6.9 14.6 1,362 51 12.4
2/6/21 67.4 1513 22.7 0627 0.00 0.00 9.08 2.3 14.5 1257 0.105 0.58 379 32.1 98 29 0.00 0.00 0 4.7 0.0 7.9 1822 -3.8 0911 - - - - - - 9.5 7.0 14.3 1,347 51 12.4
2/5/21 65.5 1512 23.1 0615 0.00 0.00 9.08 2.0 13.8 1403 0.097 0.53 375 31.6 98 27 0.00 0.00 0 3.6 0.0 8.0 1857 -3.2 0910 - - - - - - 9.4 6.6 14.6 1,333 51 12.4
2/4/21 58.2 1317 25.6 0248 0.00 0.00 9.08 2.4 17.2 1040 0.084 0.48 363 32.2 99 44 0.00 0.00 0 1.6 0.0 9.0 2153 -3.9 1316 - - - - - - 9.3 4.9 14.0 1,318 50 12.4
Max 74.4 - 35.5 - 0.10 0.10 - 5.7 25.2 - 0.142 - 479 42.7 99 59 3.30 0.00 - 5.9 0.0 13.8 - -2.2 - - - - - - - 11.1 8.5 15.3 - 66 12.5
Avg - - - - - 0.06 - 2.7 - - - - - 32.2 - - 0.23 0.00 - 3.4 0.0 - - - - - - - - - - 6.5 4.2 13.1 - 57 -
Min 55.5 - 17.4 - 0.00 0.00 - 1.7 10.5 - 0.058 - 191 21.3 86 14 0.00 0.00 - 0.7 0.0 4.1 - -4.9 - - - - - - - 0.0 0.0 7.6 - 50 12.3
Total - - - - - - - - - - - - - - - - 7.01 0.00 - 102.6 0.0 - - - - - - - - - - 195.0 124.6 392.7 - - -